createdAt,value
2023-03-03T00:02:12.424Z,97526.20
2023-03-03T00:04:40.489Z,97519.56
2023-03-03T00:07:08.346Z,97524.87
2023-03-03T00:09:36.069Z,97520.89
2023-03-03T00:12:15.233Z,97518.77
2023-03-03T00:14:43.212Z,97515.03
2023-03-03T00:17:22.418Z,97512.64
2023-03-03T00:19:51.311Z,97512.39
2023-03-03T00:22:33.742Z,97509.45
2023-03-03T00:25:30.103Z,97510.01
2023-03-03T00:28:28.035Z,97508.95
2023-03-03T00:30:59.739Z,97501.25
2023-03-03T00:33:34.135Z,97500.72
2023-03-03T00:36:29.588Z,97494.59
2023-03-03T00:39:26.776Z,97498.84
2023-03-03T00:41:55.122Z,97500.42
2023-03-03T00:44:43.163Z,97496.97
2023-03-03T00:47:32.276Z,97491.16
2023-03-03T00:50:11.283Z,97488.77
2023-03-03T00:52:47.343Z,97487.70
2023-03-03T00:55:15.185Z,97488.77
2023-03-03T00:57:42.935Z,97481.88
2023-03-03T01:00:12.452Z,97481.08
2023-03-03T01:02:40.343Z,97477.36
2023-03-03T01:05:10.831Z,97475.77
2023-03-03T01:07:38.458Z,97473.65
2023-03-03T01:10:07.569Z,97474.72
2023-03-03T01:12:35.891Z,97482.14
2023-03-03T01:15:05.506Z,97476.05
2023-03-03T01:17:34.128Z,97479.23
2023-03-03T01:20:02.718Z,97477.91
2023-03-03T01:22:30.443Z,97473.67
2023-03-03T01:25:00.218Z,97478.70
2023-03-03T01:27:28.222Z,97478.42
2023-03-03T01:29:57.841Z,97472.61
2023-03-03T01:32:26.013Z,97473.91
2023-03-03T01:34:54.410Z,97473.66
2023-03-03T01:37:22.460Z,97475.50
2023-03-03T01:39:51.889Z,97472.56
2023-03-03T01:42:22.602Z,97471.25
2023-03-03T01:45:12.347Z,97464.84
2023-03-03T01:48:03.617Z,97464.59
2023-03-03T01:50:51.288Z,97465.34
2023-03-03T01:53:22.773Z,97461.08
2023-03-03T01:55:52.535Z,97457.36
2023-03-03T01:58:28.054Z,97462.66
2023-03-03T02:01:04.949Z,97463.96
2023-03-03T02:03:34.958Z,97461.84
2023-03-03T02:06:10.091Z,97460.48
2023-03-03T02:09:08.378Z,97457.31
2023-03-03T02:11:38.747Z,97452.52
2023-03-03T02:14:06.819Z,97451.72
2023-03-03T02:16:34.982Z,97445.88
2023-03-03T02:19:06.453Z,97449.86
2023-03-03T02:21:34.463Z,97444.30
2023-03-03T02:24:19.742Z,97441.09
2023-03-03T02:26:48.608Z,97441.09
2023-03-03T02:29:16.573Z,97438.19
2023-03-03T02:31:44.584Z,97440.31
2023-03-03T02:34:12.610Z,97442.43
2023-03-03T02:36:41.860Z,97431.30
2023-03-03T02:39:23.536Z,97437.69
2023-03-03T02:42:24.486Z,97429.18
2023-03-03T02:44:54.141Z,97438.19
2023-03-03T02:47:22.065Z,97433.42
2023-03-03T02:49:49.869Z,97437.94
2023-03-03T02:52:18.829Z,97430.51
2023-03-03T02:54:47.287Z,97426.52
2023-03-03T02:57:15.106Z,97425.45
2023-03-03T02:59:42.958Z,97428.89
2023-03-03T03:02:12.759Z,97425.70
2023-03-03T03:04:40.720Z,97420.92
2023-03-03T03:07:11.362Z,97424.37
2023-03-03T03:09:42.500Z,97426.73
2023-03-03T03:12:15.390Z,97425.94
2023-03-03T03:14:43.455Z,97425.65
2023-03-03T03:17:12.247Z,97426.44
2023-03-03T03:19:40.891Z,97429.05
2023-03-03T03:22:08.868Z,97430.38
2023-03-03T03:24:36.796Z,97426.68
2023-03-03T03:27:06.463Z,97429.84
2023-03-03T03:29:35.057Z,97434.11
2023-03-03T03:32:03.079Z,97430.09
2023-03-03T03:34:30.985Z,97426.92
2023-03-03T03:36:58.957Z,97422.95
2023-03-03T03:39:27.481Z,97415.23
2023-03-03T03:41:55.610Z,97412.33
2023-03-03T03:44:24.822Z,97417.13
2023-03-03T03:46:52.819Z,97408.34
2023-03-03T03:49:21.164Z,97412.91
2023-03-03T03:51:49.976Z,97408.92
2023-03-03T03:54:19.277Z,97400.96
2023-03-03T03:56:47.106Z,97403.87
2023-03-03T03:59:14.983Z,97404.40
2023-03-03T04:01:42.922Z,97405.48
2023-03-03T04:04:10.773Z,97399.88
2023-03-03T04:06:38.729Z,97406.56
2023-03-03T04:09:06.958Z,97397.55
2023-03-03T04:11:34.887Z,97395.69
2023-03-03T04:14:03.605Z,97400.47
2023-03-03T04:16:32.100Z,97395.94
2023-03-03T04:19:00.028Z,97395.94
2023-03-03T04:21:28.172Z,97394.07
2023-03-03T04:23:57.778Z,97392.99
2023-03-03T04:26:29.230Z,97391.67
2023-03-03T04:29:01.161Z,97391.95
2023-03-03T04:31:29.649Z,97397.52
2023-03-03T04:33:57.637Z,97393.24
2023-03-03T04:36:26.455Z,97397.51
2023-03-03T04:38:54.597Z,97398.05
2023-03-03T04:41:23.223Z,97393.78
2023-03-03T04:43:51.331Z,97398.55
2023-03-03T04:46:20.194Z,97396.98
2023-03-03T04:48:48.574Z,97403.36
2023-03-03T04:51:18.120Z,97399.88
2023-03-03T04:53:46.937Z,97395.89
2023-03-03T04:56:15.182Z,97400.95
2023-03-03T04:58:45.364Z,97398.84
2023-03-03T05:01:18.146Z,97399.63
2023-03-03T05:03:46.066Z,97393.23
2023-03-03T05:06:13.837Z,97397.75
2023-03-03T05:08:42.744Z,97403.85
2023-03-03T05:11:11.474Z,97400.37
2023-03-03T05:13:39.414Z,97393.72
2023-03-03T05:16:07.838Z,97398.78
2023-03-03T05:18:35.875Z,97401.70
2023-03-03T05:21:04.388Z,97399.04
2023-03-03T05:23:32.303Z,97401.44
2023-03-03T05:26:00.138Z,97404.61
2023-03-03T05:28:28.743Z,97404.61
2023-03-03T05:30:56.977Z,97407.55
2023-03-03T05:33:25.147Z,97407.30
2023-03-03T05:35:57.730Z,97407.59
2023-03-03T05:38:25.868Z,97408.64
2023-03-03T05:40:54.372Z,97404.11
2023-03-03T05:43:22.485Z,97400.13
2023-03-03T05:45:57.185Z,97401.73
2023-03-03T05:48:25.413Z,97407.30
2023-03-03T05:50:53.305Z,97408.09
2023-03-03T05:53:21.483Z,97410.49
2023-03-03T05:55:49.469Z,97409.41
2023-03-03T05:58:17.535Z,97406.22
2023-03-03T06:00:45.710Z,97406.47
2023-03-03T06:03:13.796Z,97405.67
2023-03-03T06:05:42.535Z,97408.09
2023-03-03T06:08:10.379Z,97410.49
2023-03-03T06:10:38.570Z,97409.96
2023-03-03T06:13:07.286Z,97409.70
2023-03-03T06:15:35.636Z,97404.40
2023-03-03T06:18:04.943Z,97404.66
2023-03-03T06:20:33.326Z,97403.31
2023-03-03T06:23:01.740Z,97398.25
2023-03-03T06:25:31.062Z,97398.79
2023-03-03T06:27:59.157Z,97401.98
2023-03-03T06:30:28.146Z,97413.36
2023-03-03T06:32:56.327Z,97401.65
2023-03-03T06:35:24.544Z,97405.63
2023-03-03T06:37:52.582Z,97402.72
2023-03-03T06:40:20.800Z,97415.46
2023-03-03T06:42:49.639Z,97419.66
2023-03-03T06:45:17.858Z,97415.11
2023-03-03T06:47:46.289Z,97419.10
2023-03-03T06:50:19.079Z,97419.05
2023-03-03T06:52:47.041Z,97419.84
2023-03-03T06:55:20.579Z,97428.84
2023-03-03T06:57:48.993Z,97423.76
2023-03-03T07:00:25.923Z,97418.72
2023-03-03T07:03:01.815Z,97422.95
2023-03-03T07:05:30.335Z,97430.09
2023-03-03T07:07:58.946Z,97423.14
2023-03-03T07:10:31.548Z,97425.25
2023-03-03T07:13:04.880Z,97428.69
2023-03-03T07:15:36.548Z,97426.52
2023-03-03T07:18:24.627Z,97428.30
2023-03-03T07:20:52.773Z,97433.81
2023-03-03T07:23:41.971Z,97435.33
2023-03-03T07:26:39.359Z,97429.10
2023-03-03T07:29:23.061Z,97432.21
2023-03-03T07:31:51.484Z,97438.23
2023-03-03T07:34:42.794Z,97429.89
2023-03-03T07:37:19.771Z,97428.97
2023-03-03T07:39:49.605Z,97425.45
2023-03-03T07:42:29.170Z,97422.48
2023-03-03T07:45:26.586Z,97424.26
2023-03-03T07:48:08.894Z,97419.40
2023-03-03T07:50:41.677Z,97418.27
2023-03-03T07:53:20.784Z,97426.71
2023-03-03T07:55:49.485Z,97420.19
2023-03-03T07:58:25.784Z,97419.84
2023-03-03T08:01:35.771Z,97412.59
2023-03-03T08:04:30.985Z,97413.78
2023-03-03T08:07:02.113Z,97410.77
2023-03-03T08:09:58.827Z,97415.68
2023-03-03T08:12:41.226Z,97413.38
2023-03-03T08:15:22.960Z,97411.36
2023-03-03T08:17:54.319Z,97404.38
2023-03-03T08:20:48.766Z,97400.55
2023-03-03T08:23:25.657Z,97400.30
2023-03-03T08:25:55.828Z,97395.81
2023-03-03T08:28:24.277Z,97398.81
2023-03-03T08:31:05.548Z,97395.72
2023-03-03T08:33:24.173Z,97401.22
2023-03-03T08:35:52.353Z,97404.91
2023-03-03T08:38:24.386Z,97404.56
2023-03-03T08:40:52.563Z,97404.44
2023-03-03T08:43:22.531Z,97406.41
2023-03-03T08:45:53.770Z,97405.41
2023-03-03T08:48:26.507Z,97410.80
2023-03-03T08:50:58.281Z,97413.21
2023-03-03T08:53:27.663Z,97408.77
2023-03-03T08:55:56.796Z,97409.66
2023-03-03T08:58:34.691Z,97403.84
2023-03-03T09:00:55.083Z,97407.55
2023-03-03T09:03:23.396Z,97399.74
2023-03-03T09:05:51.280Z,97402.65
2023-03-03T09:08:19.692Z,97404.91
2023-03-03T09:10:49.632Z,97403.61
2023-03-03T09:13:22.087Z,97397.95
2023-03-03T09:15:50.277Z,97398.48
2023-03-03T09:18:37.245Z,97399.16
2023-03-03T09:21:32.728Z,97396.04
2023-03-03T09:24:08.990Z,97387.09
2023-03-03T09:26:48.839Z,97390.46
2023-03-03T09:29:34.273Z,97386.16
2023-03-03T09:32:37.689Z,97394.41
2023-03-03T09:35:42.925Z,97388.08
2023-03-03T09:38:32.344Z,97389.30
2023-03-03T09:41:23.999Z,97378.76
2023-03-03T09:44:27.568Z,97375.47
2023-03-03T09:47:06.865Z,97377.17
2023-03-03T09:50:02.704Z,97374.77
2023-03-03T09:53:04.900Z,97379.77
2023-03-03T09:55:56.677Z,97374.11
2023-03-03T09:58:47.058Z,97371.91
2023-03-03T10:01:44.883Z,97360.84
2023-03-03T10:04:36.351Z,97357.19
2023-03-03T10:07:24.484Z,97357.66
2023-03-03T10:10:16.928Z,97349.97
2023-03-03T10:13:04.629Z,97347.77
2023-03-03T10:16:00.580Z,97342.19
2023-03-03T10:18:38.130Z,97327.36
2023-03-03T10:21:20.692Z,97332.30
2023-03-03T10:23:59.424Z,97331.48
2023-03-03T10:27:05.261Z,97322.14
2023-03-03T10:29:46.205Z,97324.55
2023-03-03T10:32:28.972Z,97317.70
2023-03-03T10:35:45.658Z,97320.73
2023-03-03T10:38:35.541Z,97316.89
2023-03-03T10:41:39.024Z,97311.55
2023-03-03T10:44:38.042Z,97312.30
2023-03-03T10:47:20.397Z,97310.77
2023-03-03T10:50:33.812Z,97310.42
2023-03-03T10:53:31.508Z,97306.30
2023-03-03T10:56:23.053Z,97301.97
2023-03-03T10:59:02.133Z,97305.60
2023-03-03T11:02:07.233Z,97297.34
2023-03-03T11:05:12.380Z,97293.51
2023-03-03T11:07:48.481Z,97278.86
2023-03-03T11:10:27.936Z,97271.31
2023-03-03T11:13:03.119Z,97276.05
2023-03-03T11:15:45.513Z,97269.59
2023-03-03T11:18:34.021Z,97263.08
2023-03-03T11:21:21.921Z,97266.02
2023-03-03T11:24:15.183Z,97255.61
2023-03-03T11:27:17.134Z,97263.17
2023-03-03T11:30:16.453Z,97255.67
2023-03-03T11:32:52.516Z,97253.94
2023-03-03T11:35:27.803Z,97247.81
2023-03-03T11:38:20.442Z,97246.77
2023-03-03T11:40:56.419Z,97240.39
2023-03-03T11:43:42.299Z,97239.41
2023-03-03T11:46:13.340Z,97251.63
2023-03-03T11:49:09.097Z,97242.63
2023-03-03T11:52:03.548Z,97248.64
2023-03-03T11:54:42.793Z,97248.84
2023-03-03T11:57:25.330Z,97244.43
2023-03-03T12:00:13.846Z,97243.50
2023-03-03T12:03:10.170Z,97244.59
2023-03-03T12:05:49.776Z,97240.24
2023-03-03T12:08:37.986Z,97237.50
2023-03-03T12:11:29.566Z,97237.31
2023-03-03T12:14:26.627Z,97234.74
2023-03-03T12:17:03.346Z,97238.60
2023-03-03T12:19:53.485Z,97237.14
2023-03-03T12:22:33.807Z,97238.12
2023-03-03T12:25:28.175Z,97243.19
2023-03-03T12:28:10.295Z,97245.66
2023-03-03T12:31:15.735Z,97241.83
2023-03-03T12:33:56.313Z,97238.09
2023-03-03T12:36:47.292Z,97231.95
2023-03-03T12:39:38.666Z,97227.49
2023-03-03T12:42:43.844Z,97227.59
2023-03-03T12:45:35.435Z,97233.30
2023-03-03T12:48:32.583Z,97230.59
2023-03-03T12:51:22.502Z,97230.69
2023-03-03T12:54:37.202Z,97225.77
2023-03-03T12:57:31.832Z,97220.63
2023-03-03T13:00:23.730Z,97223.75
2023-03-03T13:03:02.972Z,97222.96
2023-03-03T13:06:05.802Z,97224.41
2023-03-03T13:09:01.751Z,97226.41
2023-03-03T13:11:33.008Z,97222.56
2023-03-03T13:14:20.900Z,97222.30
2023-03-03T13:16:56.712Z,97228.55
2023-03-03T13:19:30.237Z,97219.19
2023-03-03T13:22:09.050Z,97224.01
2023-03-03T13:24:58.954Z,97212.90
2023-03-03T13:27:35.253Z,97209.11
2023-03-03T13:30:17.432Z,97214.05
2023-03-03T13:32:59.066Z,97210.83
2023-03-03T13:35:44.074Z,97209.16
2023-03-03T13:38:16.979Z,97194.28
2023-03-03T13:40:52.677Z,97194.28
2023-03-03T13:43:27.447Z,97202.45
2023-03-03T13:46:29.776Z,97198.06
2023-03-03T13:49:25.682Z,97196.03
2023-03-03T13:52:11.589Z,97201.16
2023-03-03T13:55:02.976Z,97201.43
2023-03-03T13:57:41.693Z,97194.19
2023-03-03T14:00:30.279Z,97188.13
2023-03-03T14:03:28.916Z,97189.65
2023-03-03T14:06:09.218Z,97193.64
2023-03-03T14:08:55.005Z,97186.83
2023-03-03T14:11:31.942Z,97188.83
2023-03-03T14:14:24.703Z,97188.47
2023-03-03T14:17:25.289Z,97185.56
2023-03-03T14:20:13.593Z,97181.66
2023-03-03T14:22:54.777Z,97181.55
2023-03-03T14:25:22.458Z,97182.36
2023-03-03T14:28:01.551Z,97173.69
2023-03-03T14:30:45.147Z,97170.64
2023-03-03T14:33:18.146Z,97168.83
2023-03-03T14:36:00.073Z,97170.69
2023-03-03T14:38:38.869Z,97164.73
2023-03-03T14:41:14.766Z,97165.48
2023-03-03T14:44:12.112Z,97165.12
2023-03-03T14:46:41.337Z,97169.84
2023-03-03T14:49:30.019Z,97162.43
2023-03-03T14:52:23.186Z,97159.88
2023-03-03T14:54:59.344Z,97160.32
2023-03-03T14:57:47.273Z,97162.92
2023-03-03T15:00:23.602Z,97170.77
2023-03-03T15:03:23.229Z,97164.91
2023-03-03T15:05:57.427Z,97164.69
2023-03-03T15:08:35.502Z,97159.19
2023-03-03T15:11:20.362Z,97161.83
2023-03-03T15:13:48.287Z,97159.09
2023-03-03T15:16:23.598Z,97164.19
2023-03-03T15:19:02.693Z,97160.66
2023-03-03T15:21:34.820Z,97161.87
2023-03-03T15:24:14.578Z,97159.60
2023-03-03T15:26:56.337Z,97163.74
2023-03-03T15:29:44.239Z,97161.14
2023-03-03T15:32:30.947Z,97162.91
2023-03-03T15:35:16.194Z,97164.97
2023-03-03T15:37:58.618Z,97160.73
2023-03-03T15:40:49.090Z,97161.23
2023-03-03T15:43:45.260Z,97164.75
2023-03-03T15:46:33.533Z,97168.56
2023-03-03T15:49:24.877Z,97170.50
2023-03-03T15:52:05.036Z,97175.02
2023-03-03T15:55:04.079Z,97178.48
2023-03-03T15:57:40.690Z,97175.27
2023-03-03T16:00:54.898Z,97169.94
2023-03-03T16:03:36.207Z,97173.09
2023-03-03T16:06:18.292Z,97177.48
2023-03-03T16:09:05.795Z,97178.28
2023-03-03T16:12:12.500Z,97182.84
2023-03-03T16:15:13.097Z,97186.61
2023-03-03T16:18:00.857Z,97183.55
2023-03-03T16:20:37.228Z,97193.84
2023-03-03T16:23:35.298Z,97198.65
2023-03-03T16:26:28.511Z,97207.43
2023-03-03T16:29:14.167Z,97205.30
2023-03-03T16:31:59.405Z,97207.63
2023-03-03T16:34:32.552Z,97207.53
2023-03-03T16:37:31.789Z,97221.36
2023-03-03T16:40:24.605Z,97222.03
2023-03-03T16:43:16.103Z,97223.58
2023-03-03T16:45:47.312Z,97225.61
2023-03-03T16:48:47.302Z,97225.00
2023-03-03T16:51:46.049Z,97229.71
2023-03-03T16:54:57.341Z,97235.73
2023-03-03T16:57:47.998Z,97238.05
2023-03-03T17:00:23.429Z,97242.54
2023-03-03T17:03:24.714Z,97244.38
2023-03-03T17:06:03.689Z,97244.30
2023-03-03T17:09:02.285Z,97250.20
2023-03-03T17:11:39.011Z,97253.61
2023-03-03T17:14:18.729Z,97248.77
2023-03-03T17:17:16.788Z,97255.86
2023-03-03T17:19:56.894Z,97260.64
2023-03-03T17:23:01.179Z,97257.63
2023-03-03T17:25:57.380Z,97260.47
2023-03-03T17:29:06.501Z,97259.50
2023-03-03T17:31:46.682Z,97267.09
2023-03-03T17:34:40.454Z,97270.47
2023-03-03T17:37:33.861Z,97274.55
2023-03-03T17:40:16.386Z,97271.20
2023-03-03T17:42:55.896Z,97272.63
2023-03-03T17:45:27.831Z,97273.21
2023-03-03T17:48:10.229Z,97265.86
2023-03-03T17:50:43.394Z,97277.88
2023-03-03T17:53:37.638Z,97278.66
2023-03-03T17:56:13.493Z,97280.78
2023-03-03T17:59:04.446Z,97281.09
2023-03-03T18:02:03.495Z,97280.82
2023-03-03T18:04:56.999Z,97281.37
2023-03-03T18:07:48.091Z,97283.84
2023-03-03T18:10:42.977Z,97288.43
2023-03-03T18:13:33.695Z,97289.56
2023-03-03T18:16:19.424Z,97289.66
2023-03-03T18:19:21.931Z,97298.80
2023-03-03T18:22:07.223Z,97297.50
2023-03-03T18:24:43.145Z,97296.27
2023-03-03T18:27:37.128Z,97301.64
2023-03-03T18:30:24.368Z,97308.34
2023-03-03T18:33:00.850Z,97304.14
2023-03-03T18:35:45.447Z,97302.91
2023-03-03T18:38:29.108Z,97312.31
2023-03-03T18:41:01.181Z,97318.22
2023-03-03T18:43:47.863Z,97321.53
2023-03-03T18:46:27.716Z,97323.47
2023-03-03T18:49:08.818Z,97324.35
2023-03-03T18:51:46.868Z,97328.95
2023-03-03T18:54:25.024Z,97328.80
2023-03-03T18:57:03.416Z,97324.35
2023-03-03T18:59:40.564Z,97326.02
2023-03-03T19:02:38.482Z,97330.12
2023-03-03T19:05:20.407Z,97328.09
2023-03-03T19:08:05.094Z,97332.44
2023-03-03T19:10:50.363Z,97338.91
2023-03-03T19:13:38.209Z,97335.23
2023-03-03T19:16:28.128Z,97336.62
2023-03-03T19:19:04.303Z,97335.37
2023-03-03T19:21:35.437Z,97342.13
2023-03-03T19:24:27.391Z,97340.86
2023-03-03T19:27:27.381Z,97339.14
2023-03-03T19:30:40.756Z,97347.48
2023-03-03T19:33:35.331Z,97341.41
2023-03-03T19:36:35.976Z,97340.13
2023-03-03T19:39:24.032Z,97340.94
2023-03-03T19:42:18.074Z,97346.83
2023-03-03T19:45:07.336Z,97342.61
2023-03-03T19:48:06.577Z,97346.65
2023-03-03T19:50:44.846Z,97347.75
2023-03-03T19:53:40.585Z,97346.75
2023-03-03T19:56:45.754Z,97349.44
2023-03-03T19:59:19.226Z,97346.84
2023-03-03T20:02:04.265Z,97351.70
2023-03-03T20:05:02.044Z,97357.83
2023-03-03T20:07:44.163Z,97357.59
2023-03-03T20:10:45.666Z,97361.11
2023-03-03T20:13:51.311Z,97363.02
2023-03-03T20:16:42.218Z,97359.61
2023-03-03T20:19:44.218Z,97361.50
2023-03-03T20:22:43.493Z,97367.38
2023-03-03T20:25:28.930Z,97365.55
2023-03-03T20:28:39.689Z,97371.66
2023-03-03T20:31:33.440Z,97373.55
2023-03-03T20:34:13.092Z,97377.83
2023-03-03T20:37:08.221Z,97379.77
2023-03-03T20:40:08.995Z,97376.88
2023-03-03T20:43:12.665Z,97380.38
2023-03-03T20:46:01.021Z,97385.70
2023-03-03T20:48:46.542Z,97388.70
2023-03-03T20:51:19.666Z,97394.02
2023-03-03T20:54:02.310Z,97388.50
2023-03-03T20:56:51.021Z,97390.38
2023-03-03T20:59:31.119Z,97393.05
2023-03-03T21:02:16.919Z,97397.86
2023-03-03T21:04:45.317Z,97393.91
2023-03-03T21:07:26.475Z,97387.52
2023-03-03T21:10:16.931Z,97393.38
2023-03-03T21:12:45.180Z,97393.66
2023-03-03T21:15:30.187Z,97397.93
2023-03-03T21:17:59.662Z,97396.35
2023-03-03T21:20:34.894Z,97400.08
2023-03-03T21:23:03.400Z,97399.58
2023-03-03T21:25:44.380Z,97405.42
2023-03-03T21:28:32.440Z,97403.84
2023-03-03T21:31:17.760Z,97408.10
2023-03-03T21:33:57.707Z,97414.73
2023-03-03T21:36:40.284Z,97410.24
2023-03-03T21:39:28.568Z,97407.88
2023-03-03T21:42:15.634Z,97408.15
2023-03-03T21:44:51.316Z,97408.67
2023-03-03T21:47:22.383Z,97408.42
2023-03-03T21:49:51.975Z,97418.52
2023-03-03T21:52:27.642Z,97418.53
2023-03-03T21:54:55.726Z,97415.35
2023-03-03T21:57:25.582Z,97415.88
2023-03-03T21:59:53.765Z,97417.20
2023-03-03T22:02:21.663Z,97420.66
2023-03-03T22:04:51.479Z,97424.35
2023-03-03T22:07:19.209Z,97424.63
2023-03-03T22:09:51.254Z,97425.95
2023-03-03T22:12:19.105Z,97428.62
2023-03-03T22:14:46.721Z,97429.14
2023-03-03T22:17:14.940Z,97434.44
2023-03-03T22:19:43.106Z,97433.09
2023-03-03T22:22:13.893Z,97433.89
2023-03-03T22:24:41.710Z,97439.97
2023-03-03T22:27:11.697Z,97439.17
2023-03-03T22:29:39.771Z,97428.56
2023-03-03T22:32:07.506Z,97432.03
2023-03-03T22:34:37.530Z,97434.14
2023-03-03T22:37:05.272Z,97437.56
2023-03-03T22:39:32.933Z,97433.08
2023-03-03T22:42:00.694Z,97440.77
2023-03-03T22:44:28.621Z,97436.78
2023-03-03T22:46:56.709Z,97435.72
2023-03-03T22:49:24.591Z,97437.55
2023-03-03T22:51:52.668Z,97436.77
2023-03-03T22:54:20.388Z,97439.39
2023-03-03T22:56:47.973Z,97440.71
2023-03-03T22:59:15.541Z,97440.69
2023-03-03T23:01:43.211Z,97440.94
2023-03-03T23:04:10.953Z,97445.41
2023-03-03T23:06:38.740Z,97446.98
2023-03-03T23:09:07.408Z,97445.92
2023-03-03T23:11:35.063Z,97449.61
2023-03-03T23:14:02.743Z,97451.19
2023-03-03T23:16:30.421Z,97459.39
2023-03-03T23:18:58.049Z,97456.42
2023-03-03T23:21:25.775Z,97452.41
2023-03-03T23:23:53.374Z,97460.58
2023-03-03T23:26:21.242Z,97458.47
2023-03-03T23:28:48.794Z,97464.29
2023-03-03T23:31:16.501Z,97463.22
2023-03-03T23:33:44.025Z,97457.08
2023-03-03T23:36:12.614Z,97453.63
2023-03-03T23:38:42.709Z,97461.56
2023-03-03T23:41:09.905Z,97460.22
2023-03-03T23:43:37.489Z,97460.45
2023-03-03T23:46:05.280Z,97463.37
2023-03-03T23:48:32.955Z,97460.47
2023-03-03T23:51:01.036Z,97461.79
2023-03-03T23:53:28.783Z,97467.88
2023-03-03T23:55:56.487Z,97463.64
2023-03-03T23:58:23.910Z,97458.11
